sensor_id;sensor_type;location;lat;lon;timestamp;temperature;humidity
18408;DHT22;9330;52.210;21.174;2023-04-26T00:01:31;7.10;99.90
18408;DHT22;9330;52.210;21.174;2023-04-26T00:03:57;7.00;99.90
18408;DHT22;9330;52.210;21.174;2023-04-26T00:06:25;7.10;99.90
18408;DHT22;9330;52.210;21.174;2023-04-26T00:08:54;7.10;99.90
18408;DHT22;9330;52.210;21.174;2023-04-26T00:11:21;7.20;99.90
18408;DHT22;9330;52.210;21.174;2023-04-26T00:13:48;7.10;99.90
18408;DHT22;9330;52.210;21.174;2023-04-26T00:16:14;7.10;99.90
18408;DHT22;9330;52.210;21.174;2023-04-26T00:18:42;7.20;99.90
18408;DHT22;9330;52.210;21.174;2023-04-26T00:21:10;7.00;99.90
18408;DHT22;9330;52.210;21.174;2023-04-26T00:23:37;7.20;99.90
18408;DHT22;9330;52.210;21.174;2023-04-26T00:26:06;7.10;99.90
18408;DHT22;9330;52.210;21.174;2023-04-26T00:28:33;7.30;99.90
18408;DHT22;9330;52.210;21.174;2023-04-26T00:31:00;7.00;99.90
18408;DHT22;9330;52.210;21.174;2023-04-26T00:33:27;7.00;99.90
18408;DHT22;9330;52.210;21.174;2023-04-26T00:35:55;7.00;99.90
18408;DHT22;9330;52.210;21.174;2023-04-26T00:38:22;6.90;99.90
18408;DHT22;9330;52.210;21.174;2023-04-26T00:40:48;7.00;99.90
18408;DHT22;9330;52.210;21.174;2023-04-26T00:43:17;6.90;99.90
18408;DHT22;9330;52.210;21.174;2023-04-26T00:45:44;6.90;99.90
18408;DHT22;9330;52.210;21.174;2023-04-26T00:48:11;7.00;99.90
18408;DHT22;9330;52.210;21.174;2023-04-26T00:50:38;6.90;99.90
18408;DHT22;9330;52.210;21.174;2023-04-26T00:53:07;6.90;99.90
18408;DHT22;9330;52.210;21.174;2023-04-26T00:55:34;6.90;99.90
18408;DHT22;9330;52.210;21.174;2023-04-26T00:58:01;7.10;99.90
18408;DHT22;9330;52.210;21.174;2023-04-26T01:00:29;7.00;99.90
18408;DHT22;9330;52.210;21.174;2023-04-26T01:02:56;6.80;99.90
18408;DHT22;9330;52.210;21.174;2023-04-26T01:05:23;6.80;99.90
18408;DHT22;9330;52.210;21.174;2023-04-26T01:07:51;6.80;99.90
18408;DHT22;9330;52.210;21.174;2023-04-26T01:10:18;6.90;99.90
18408;DHT22;9330;52.210;21.174;2023-04-26T01:12:45;6.80;99.90
18408;DHT22;9330;52.210;21.174;2023-04-26T01:15:12;6.70;99.90
18408;DHT22;9330;52.210;21.174;2023-04-26T01:17:40;6.60;99.90
18408;DHT22;9330;52.210;21.174;2023-04-26T01:20:09;6.70;99.90
18408;DHT22;9330;52.210;21.174;2023-04-26T01:22:38;6.50;99.90
18408;DHT22;9330;52.210;21.174;2023-04-26T01:25:06;6.40;99.90
18408;DHT22;9330;52.210;21.174;2023-04-26T01:27:36;6.30;99.90
18408;DHT22;9330;52.210;21.174;2023-04-26T01:30:05;6.30;99.90
18408;DHT22;9330;52.210;21.174;2023-04-26T01:32:32;6.20;99.90
18408;DHT22;9330;52.210;21.174;2023-04-26T01:35:00;6.20;99.90
18408;DHT22;9330;52.210;21.174;2023-04-26T01:37:27;6.20;99.90
18408;DHT22;9330;52.210;21.174;2023-04-26T01:39:55;6.20;99.90
18408;DHT22;9330;52.210;21.174;2023-04-26T01:42:23;6.10;99.90
18408;DHT22;9330;52.210;21.174;2023-04-26T01:44:49;6.10;99.90
18408;DHT22;9330;52.210;21.174;2023-04-26T01:47:17;6.00;99.90
18408;DHT22;9330;52.210;21.174;2023-04-26T01:49:43;6.00;99.90
18408;DHT22;9330;52.210;21.174;2023-04-26T01:52:10;5.90;99.90
18408;DHT22;9330;52.210;21.174;2023-04-26T01:54:37;6.00;99.90
18408;DHT22;9330;52.210;21.174;2023-04-26T01:57:06;6.00;99.90
18408;DHT22;9330;52.210;21.174;2023-04-26T01:59:33;6.00;99.90
18408;DHT22;9330;52.210;21.174;2023-04-26T02:02:00;5.90;99.90
18408;DHT22;9330;52.210;21.174;2023-04-26T02:04:27;5.90;99.90
18408;DHT22;9330;52.210;21.174;2023-04-26T02:06:54;5.90;99.90
18408;DHT22;9330;52.210;21.174;2023-04-26T02:09:21;5.90;99.90
18408;DHT22;9330;52.210;21.174;2023-04-26T02:11:48;5.90;99.90
18408;DHT22;9330;52.210;21.174;2023-04-26T02:14:16;5.90;99.90
18408;DHT22;9330;52.210;21.174;2023-04-26T02:16:43;5.80;99.90
18408;DHT22;9330;52.210;21.174;2023-04-26T02:19:10;6.00;99.90
18408;DHT22;9330;52.210;21.174;2023-04-26T02:21:51;6.00;99.90
18408;DHT22;9330;52.210;21.174;2023-04-26T02:24:18;5.90;99.90
18408;DHT22;9330;52.210;21.174;2023-04-26T02:26:46;5.90;99.90
18408;DHT22;9330;52.210;21.174;2023-04-26T02:29:13;5.90;99.90
18408;DHT22;9330;52.210;21.174;2023-04-26T02:31:42;5.90;99.90
18408;DHT22;9330;52.210;21.174;2023-04-26T02:34:09;5.90;99.90
18408;DHT22;9330;52.210;21.174;2023-04-26T02:36:36;5.90;99.90
18408;DHT22;9330;52.210;21.174;2023-04-26T02:39:03;5.90;99.90
18408;DHT22;9330;52.210;21.174;2023-04-26T02:41:30;5.80;99.90
18408;DHT22;9330;52.210;21.174;2023-04-26T02:43:58;5.90;99.90
18408;DHT22;9330;52.210;21.174;2023-04-26T02:46:25;5.90;99.90
18408;DHT22;9330;52.210;21.174;2023-04-26T02:48:53;5.90;99.90
18408;DHT22;9330;52.210;21.174;2023-04-26T02:51:20;5.90;99.90
18408;DHT22;9330;52.210;21.174;2023-04-26T02:53:47;5.90;99.90
18408;DHT22;9330;52.210;21.174;2023-04-26T02:56:14;6.00;99.90
18408;DHT22;9330;52.210;21.174;2023-04-26T02:58:42;5.90;99.90
18408;DHT22;9330;52.210;21.174;2023-04-26T03:01:09;6.00;99.90
18408;DHT22;9330;52.210;21.174;2023-04-26T03:03:37;5.90;99.90
18408;DHT22;9330;52.210;21.174;2023-04-26T03:06:05;5.90;99.90
18408;DHT22;9330;52.210;21.174;2023-04-26T03:08:32;6.00;99.90
18408;DHT22;9330;52.210;21.174;2023-04-26T03:11:01;6.00;99.90
18408;DHT22;9330;52.210;21.174;2023-04-26T03:13:28;5.90;99.90
18408;DHT22;9330;52.210;21.174;2023-04-26T03:15:55;6.00;99.90
18408;DHT22;9330;52.210;21.174;2023-04-26T03:18:22;6.00;99.90
18408;DHT22;9330;52.210;21.174;2023-04-26T03:20:49;6.00;99.90
18408;DHT22;9330;52.210;21.174;2023-04-26T03:23:18;6.00;99.90
18408;DHT22;9330;52.210;21.174;2023-04-26T03:25:48;6.00;99.90
18408;DHT22;9330;52.210;21.174;2023-04-26T03:28:15;6.00;99.90
18408;DHT22;9330;52.210;21.174;2023-04-26T03:30:42;6.10;99.90
18408;DHT22;9330;52.210;21.174;2023-04-26T03:33:09;6.00;99.90
18408;DHT22;9330;52.210;21.174;2023-04-26T03:35:37;6.10;99.90
18408;DHT22;9330;52.210;21.174;2023-04-26T03:38:04;6.10;99.90
18408;DHT22;9330;52.210;21.174;2023-04-26T03:40:33;6.10;99.90
18408;DHT22;9330;52.210;21.174;2023-04-26T03:43:00;6.10;99.90
18408;DHT22;9330;52.210;21.174;2023-04-26T03:45:27;6.10;99.90
18408;DHT22;9330;52.210;21.174;2023-04-26T03:47:54;6.10;99.90
18408;DHT22;9330;52.210;21.174;2023-04-26T03:50:21;6.20;99.90
18408;DHT22;9330;52.210;21.174;2023-04-26T03:52:48;6.20;99.90
18408;DHT22;9330;52.210;21.174;2023-04-26T03:55:15;6.10;99.90
18408;DHT22;9330;52.210;21.174;2023-04-26T03:57:44;6.20;99.90
18408;DHT22;9330;52.210;21.174;2023-04-26T04:00:12;6.20;99.90
18408;DHT22;9330;52.210;21.174;2023-04-26T04:02:39;6.20;99.90
18408;DHT22;9330;52.210;21.174;2023-04-26T04:05:07;6.40;99.90
18408;DHT22;9330;52.210;21.174;2023-04-26T04:07:34;6.20;99.90
18408;DHT22;9330;52.210;21.174;2023-04-26T04:10:01;6.20;99.90
18408;DHT22;9330;52.210;21.174;2023-04-26T04:12:28;6.10;99.90
18408;DHT22;9330;52.210;21.174;2023-04-26T04:14:57;6.10;99.90
18408;DHT22;9330;52.210;21.174;2023-04-26T04:17:24;6.00;99.90
18408;DHT22;9330;52.210;21.174;2023-04-26T04:19:51;5.90;99.90
18408;DHT22;9330;52.210;21.174;2023-04-26T04:22:18;6.10;99.90
18408;DHT22;9330;52.210;21.174;2023-04-26T04:24:45;5.90;99.90
18408;DHT22;9330;52.210;21.174;2023-04-26T04:27:12;5.80;99.90
18408;DHT22;9330;52.210;21.174;2023-04-26T04:29:39;5.90;99.90
18408;DHT22;9330;52.210;21.174;2023-04-26T04:32:08;5.90;99.90
18408;DHT22;9330;52.210;21.174;2023-04-26T04:34:35;5.90;99.90
18408;DHT22;9330;52.210;21.174;2023-04-26T04:37:02;5.80;99.90
18408;DHT22;9330;52.210;21.174;2023-04-26T04:39:29;5.80;99.90
18408;DHT22;9330;52.210;21.174;2023-04-26T04:41:56;5.80;99.90
18408;DHT22;9330;52.210;21.174;2023-04-26T04:44:25;5.80;99.90
18408;DHT22;9330;52.210;21.174;2023-04-26T04:46:52;5.80;99.90
18408;DHT22;9330;52.210;21.174;2023-04-26T04:49:21;5.90;99.90
18408;DHT22;9330;52.210;21.174;2023-04-26T04:51:49;6.20;99.90
18408;DHT22;9330;52.210;21.174;2023-04-26T04:54:17;5.90;99.90
18408;DHT22;9330;52.210;21.174;2023-04-26T04:56:44;5.90;99.90
18408;DHT22;9330;52.210;21.174;2023-04-26T04:59:11;6.00;99.90
18408;DHT22;9330;52.210;21.174;2023-04-26T05:01:38;6.00;99.90
18408;DHT22;9330;52.210;21.174;2023-04-26T05:04:06;6.00;99.90
18408;DHT22;9330;52.210;21.174;2023-04-26T05:06:34;6.00;99.90
18408;DHT22;9330;52.210;21.174;2023-04-26T05:09:01;6.00;99.90
18408;DHT22;9330;52.210;21.174;2023-04-26T05:11:30;6.00;99.90
18408;DHT22;9330;52.210;21.174;2023-04-26T05:13:57;6.10;99.90
18408;DHT22;9330;52.210;21.174;2023-04-26T05:16:25;6.00;99.90
18408;DHT22;9330;52.210;21.174;2023-04-26T05:18:52;6.20;99.90
18408;DHT22;9330;52.210;21.174;2023-04-26T05:21:20;6.10;99.90
18408;DHT22;9330;52.210;21.174;2023-04-26T05:23:48;6.30;99.90
18408;DHT22;9330;52.210;21.174;2023-04-26T05:26:15;6.20;99.90
18408;DHT22;9330;52.210;21.174;2023-04-26T05:28:42;6.10;99.90
18408;DHT22;9330;52.210;21.174;2023-04-26T05:31:10;6.40;99.90
18408;DHT22;9330;52.210;21.174;2023-04-26T05:33:37;6.40;99.90
18408;DHT22;9330;52.210;21.174;2023-04-26T05:36:05;6.30;99.90
18408;DHT22;9330;52.210;21.174;2023-04-26T05:38:34;6.40;99.90
18408;DHT22;9330;52.210;21.174;2023-04-26T05:41:02;6.50;99.90
18408;DHT22;9330;52.210;21.174;2023-04-26T05:43:30;6.30;99.90
18408;DHT22;9330;52.210;21.174;2023-04-26T05:45:57;6.20;99.90
18408;DHT22;9330;52.210;21.174;2023-04-26T05:48:25;6.30;99.90
18408;DHT22;9330;52.210;21.174;2023-04-26T05:50:52;6.30;99.90
18408;DHT22;9330;52.210;21.174;2023-04-26T05:53:19;6.30;99.90
18408;DHT22;9330;52.210;21.174;2023-04-26T05:55:48;6.30;99.90
18408;DHT22;9330;52.210;21.174;2023-04-26T05:58:16;6.30;99.90
18408;DHT22;9330;52.210;21.174;2023-04-26T06:00:43;6.20;99.90
18408;DHT22;9330;52.210;21.174;2023-04-26T06:03:11;6.40;99.90
18408;DHT22;9330;52.210;21.174;2023-04-26T06:05:38;6.20;99.90
18408;DHT22;9330;52.210;21.174;2023-04-26T06:08:05;6.30;99.90
18408;DHT22;9330;52.210;21.174;2023-04-26T06:10:34;6.00;99.90
18408;DHT22;9330;52.210;21.174;2023-04-26T06:13:01;6.10;99.90
18408;DHT22;9330;52.210;21.174;2023-04-26T06:15:30;6.00;99.90
18408;DHT22;9330;52.210;21.174;2023-04-26T06:17:57;6.30;99.90
18408;DHT22;9330;52.210;21.174;2023-04-26T06:20:24;6.20;99.90
18408;DHT22;9330;52.210;21.174;2023-04-26T06:22:52;6.30;99.90
18408;DHT22;9330;52.210;21.174;2023-04-26T06:25:19;6.40;99.90
18408;DHT22;9330;52.210;21.174;2023-04-26T06:27:46;6.50;99.90
18408;DHT22;9330;52.210;21.174;2023-04-26T06:30:13;6.60;99.90
18408;DHT22;9330;52.210;21.174;2023-04-26T06:32:41;6.70;99.90
18408;DHT22;9330;52.210;21.174;2023-04-26T06:35:09;6.80;99.90
18408;DHT22;9330;52.210;21.174;2023-04-26T06:37:36;6.90;99.90
18408;DHT22;9330;52.210;21.174;2023-04-26T06:40:04;7.50;99.90
18408;DHT22;9330;52.210;21.174;2023-04-26T06:42:31;7.40;99.90
18408;DHT22;9330;52.210;21.174;2023-04-26T06:44:58;7.50;99.90
18408;DHT22;9330;52.210;21.174;2023-04-26T06:47:25;7.50;99.90
18408;DHT22;9330;52.210;21.174;2023-04-26T06:49:53;7.70;99.90
18408;DHT22;9330;52.210;21.174;2023-04-26T06:52:21;7.50;99.90
18408;DHT22;9330;52.210;21.174;2023-04-26T06:54:48;7.50;99.90
18408;DHT22;9330;52.210;21.174;2023-04-26T06:57:14;7.80;99.90
18408;DHT22;9330;52.210;21.174;2023-04-26T06:59:41;7.90;99.90
18408;DHT22;9330;52.210;21.174;2023-04-26T07:02:08;8.00;99.90
18408;DHT22;9330;52.210;21.174;2023-04-26T07:04:37;8.30;99.90
18408;DHT22;9330;52.210;21.174;2023-04-26T07:07:06;8.10;99.90
18408;DHT22;9330;52.210;21.174;2023-04-26T07:09:33;8.00;99.90
18408;DHT22;9330;52.210;21.174;2023-04-26T07:12:00;8.00;99.90
18408;DHT22;9330;52.210;21.174;2023-04-26T07:14:27;8.20;99.90
18408;DHT22;9330;52.210;21.174;2023-04-26T07:16:54;8.30;99.90
18408;DHT22;9330;52.210;21.174;2023-04-26T07:19:21;8.30;99.90
18408;DHT22;9330;52.210;21.174;2023-04-26T07:21:48;8.40;99.90
18408;DHT22;9330;52.210;21.174;2023-04-26T07:24:16;8.50;99.90
18408;DHT22;9330;52.210;21.174;2023-04-26T07:26:43;8.70;99.90
18408;DHT22;9330;52.210;21.174;2023-04-26T07:29:10;8.80;99.90
18408;DHT22;9330;52.210;21.174;2023-04-26T07:31:37;9.00;99.90
18408;DHT22;9330;52.210;21.174;2023-04-26T07:34:06;8.90;99.90
18408;DHT22;9330;52.210;21.174;2023-04-26T07:36:33;9.10;99.90
18408;DHT22;9330;52.210;21.174;2023-04-26T07:39:00;9.30;99.90
18408;DHT22;9330;52.210;21.174;2023-04-26T07:41:28;9.20;99.90
18408;DHT22;9330;52.210;21.174;2023-04-26T07:43:56;9.00;99.90
18408;DHT22;9330;52.210;21.174;2023-04-26T07:46:23;9.00;99.90
18408;DHT22;9330;52.210;21.174;2023-04-26T07:48:50;9.20;99.90
18408;DHT22;9330;52.210;21.174;2023-04-26T07:51:18;9.20;99.90
18408;DHT22;9330;52.210;21.174;2023-04-26T07:53:45;9.30;99.90
18408;DHT22;9330;52.210;21.174;2023-04-26T07:56:12;9.20;99.90
18408;DHT22;9330;52.210;21.174;2023-04-26T07:58:41;9.10;99.90
18408;DHT22;9330;52.210;21.174;2023-04-26T08:01:08;9.20;99.90
18408;DHT22;9330;52.210;21.174;2023-04-26T08:03:36;9.10;99.90
18408;DHT22;9330;52.210;21.174;2023-04-26T08:06:03;9.10;99.90
18408;DHT22;9330;52.210;21.174;2023-04-26T08:08:30;9.10;99.90
18408;DHT22;9330;52.210;21.174;2023-04-26T08:10:58;9.10;99.90
18408;DHT22;9330;52.210;21.174;2023-04-26T08:13:25;8.80;99.90
18408;DHT22;9330;52.210;21.174;2023-04-26T08:15:53;8.90;99.90
18408;DHT22;9330;52.210;21.174;2023-04-26T08:18:20;8.80;99.90
18408;DHT22;9330;52.210;21.174;2023-04-26T08:20:47;8.80;99.90
18408;DHT22;9330;52.210;21.174;2023-04-26T08:23:14;8.70;99.90
18408;DHT22;9330;52.210;21.174;2023-04-26T08:25:40;8.80;99.90
18408;DHT22;9330;52.210;21.174;2023-04-26T08:28:07;9.20;99.90
18408;DHT22;9330;52.210;21.174;2023-04-26T08:30:34;9.10;99.90
18408;DHT22;9330;52.210;21.174;2023-04-26T08:33:02;9.20;99.90
18408;DHT22;9330;52.210;21.174;2023-04-26T08:35:30;9.10;99.90
18408;DHT22;9330;52.210;21.174;2023-04-26T08:37:56;9.00;99.90
18408;DHT22;9330;52.210;21.174;2023-04-26T08:40:24;8.70;99.90
18408;DHT22;9330;52.210;21.174;2023-04-26T08:42:51;8.90;99.90
18408;DHT22;9330;52.210;21.174;2023-04-26T08:45:19;8.80;99.90
18408;DHT22;9330;52.210;21.174;2023-04-26T08:47:48;8.70;99.90
18408;DHT22;9330;52.210;21.174;2023-04-26T08:50:19;9.00;99.90
18408;DHT22;9330;52.210;21.174;2023-04-26T08:52:48;9.00;99.90
18408;DHT22;9330;52.210;21.174;2023-04-26T08:55:16;9.00;99.90
18408;DHT22;9330;52.210;21.174;2023-04-26T08:57:46;9.00;99.90
18408;DHT22;9330;52.210;21.174;2023-04-26T09:00:14;9.00;99.90
18408;DHT22;9330;52.210;21.174;2023-04-26T09:02:45;9.00;99.90
18408;DHT22;9330;52.210;21.174;2023-04-26T09:05:12;8.90;99.90
18408;DHT22;9330;52.210;21.174;2023-04-26T09:07:42;8.80;99.90
18408;DHT22;9330;52.210;21.174;2023-04-26T09:10:10;8.70;99.90
18408;DHT22;9330;52.210;21.174;2023-04-26T09:12:38;8.70;99.90
18408;DHT22;9330;52.210;21.174;2023-04-26T09:15:07;8.40;99.90
18408;DHT22;9330;52.210;21.174;2023-04-26T09:17:36;8.50;99.90
18408;DHT22;9330;52.210;21.174;2023-04-26T09:20:18;8.50;99.90
18408;DHT22;9330;52.210;21.174;2023-04-26T09:22:47;8.70;99.90
18408;DHT22;9330;52.210;21.174;2023-04-26T09:25:15;8.90;99.90
18408;DHT22;9330;52.210;21.174;2023-04-26T09:27:43;8.90;99.90
18408;DHT22;9330;52.210;21.174;2023-04-26T09:30:12;8.90;99.90
18408;DHT22;9330;52.210;21.174;2023-04-26T09:32:48;8.90;99.90
18408;DHT22;9330;52.210;21.174;2023-04-26T09:35:25;8.90;99.90
18408;DHT22;9330;52.210;21.174;2023-04-26T09:37:55;9.00;99.90
18408;DHT22;9330;52.210;21.174;2023-04-26T09:40:23;9.10;99.90
18408;DHT22;9330;52.210;21.174;2023-04-26T09:42:58;9.10;99.90
18408;DHT22;9330;52.210;21.174;2023-04-26T09:45:26;9.00;99.90
18408;DHT22;9330;52.210;21.174;2023-04-26T09:47:53;9.00;99.90
18408;DHT22;9330;52.210;21.174;2023-04-26T09:50:28;9.20;99.90
18408;DHT22;9330;52.210;21.174;2023-04-26T09:52:56;8.70;99.90
18408;DHT22;9330;52.210;21.174;2023-04-26T09:55:27;8.70;99.90
18408;DHT22;9330;52.210;21.174;2023-04-26T09:57:55;8.60;99.90
18408;DHT22;9330;52.210;21.174;2023-04-26T10:00:23;8.60;99.90
18408;DHT22;9330;52.210;21.174;2023-04-26T10:02:52;8.50;99.90
18408;DHT22;9330;52.210;21.174;2023-04-26T10:05:19;8.60;99.90
18408;DHT22;9330;52.210;21.174;2023-04-26T10:07:47;8.50;99.90
18408;DHT22;9330;52.210;21.174;2023-04-26T10:10:19;8.60;99.60
18408;DHT22;9330;52.210;21.174;2023-04-26T10:12:46;8.60;99.00
18408;DHT22;9330;52.210;21.174;2023-04-26T10:15:14;8.60;99.90
18408;DHT22;9330;52.210;21.174;2023-04-26T10:17:41;8.60;99.90
18408;DHT22;9330;52.210;21.174;2023-04-26T10:20:12;8.80;98.00
18408;DHT22;9330;52.210;21.174;2023-04-26T10:22:44;8.60;98.30
18408;DHT22;9330;52.210;21.174;2023-04-26T10:25:11;8.60;96.10
18408;DHT22;9330;52.210;21.174;2023-04-26T10:27:52;8.60;96.80
18408;DHT22;9330;52.210;21.174;2023-04-26T10:30:20;8.80;97.80
18408;DHT22;9330;52.210;21.174;2023-04-26T10:33:15;8.90;97.00
18408;DHT22;9330;52.210;21.174;2023-04-26T10:36:04;9.00;97.20
18408;DHT22;9330;52.210;21.174;2023-04-26T10:38:33;9.00;96.40
18408;DHT22;9330;52.210;21.174;2023-04-26T10:41:35;8.90;96.00
18408;DHT22;9330;52.210;21.174;2023-04-26T10:47:29;8.80;95.20
18408;DHT22;9330;52.210;21.174;2023-04-26T10:50:06;8.80;96.20
18408;DHT22;9330;52.210;21.174;2023-04-26T10:52:34;8.70;95.60
18408;DHT22;9330;52.210;21.174;2023-04-26T10:55:01;8.70;93.20
18408;DHT22;9330;52.210;21.174;2023-04-26T10:57:50;8.70;91.70
18408;DHT22;9330;52.210;21.174;2023-04-26T11:00:29;8.80;90.90
18408;DHT22;9330;52.210;21.174;2023-04-26T11:03:02;8.90;89.90
18408;DHT22;9330;52.210;21.174;2023-04-26T11:05:37;8.90;91.30
18408;DHT22;9330;52.210;21.174;2023-04-26T11:08:06;8.90;91.70
18408;DHT22;9330;52.210;21.174;2023-04-26T11:10:36;8.80;88.50
18408;DHT22;9330;52.210;21.174;2023-04-26T11:13:03;8.80;86.60
18408;DHT22;9330;52.210;21.174;2023-04-26T11:15:30;8.90;86.60
18408;DHT22;9330;52.210;21.174;2023-04-26T11:18:01;8.80;87.40
18408;DHT22;9330;52.210;21.174;2023-04-26T11:20:29;8.90;86.20
18408;DHT22;9330;52.210;21.174;2023-04-26T11:22:57;9.00;86.40
18408;DHT22;9330;52.210;21.174;2023-04-26T11:25:25;9.00;85.90
18408;DHT22;9330;52.210;21.174;2023-04-26T11:27:59;9.10;87.00
18408;DHT22;9330;52.210;21.174;2023-04-26T11:30:30;9.20;83.40
18408;DHT22;9330;52.210;21.174;2023-04-26T11:32:59;9.40;84.80
18408;DHT22;9330;52.210;21.174;2023-04-26T11:35:26;9.40;87.60
18408;DHT22;9330;52.210;21.174;2023-04-26T11:37:57;9.30;85.10
18408;DHT22;9330;52.210;21.174;2023-04-26T11:40:27;9.20;81.90
18408;DHT22;9330;52.210;21.174;2023-04-26T11:42:58;9.00;81.50
18408;DHT22;9330;52.210;21.174;2023-04-26T11:45:25;9.00;84.50
18408;DHT22;9330;52.210;21.174;2023-04-26T11:47:53;9.00;85.00
18408;DHT22;9330;52.210;21.174;2023-04-26T11:50:21;8.90;89.10
18408;DHT22;9330;52.210;21.174;2023-04-26T11:52:52;8.90;84.30
18408;DHT22;9330;52.210;21.174;2023-04-26T11:55:23;8.80;84.90
18408;DHT22;9330;52.210;21.174;2023-04-26T11:57:50;8.80;84.40
18408;DHT22;9330;52.210;21.174;2023-04-26T12:00:17;8.80;78.70
18408;DHT22;9330;52.210;21.174;2023-04-26T12:02:46;9.10;80.40
18408;DHT22;9330;52.210;21.174;2023-04-26T12:05:24;9.70;82.70
18408;DHT22;9330;52.210;21.174;2023-04-26T12:07:52;10.10;82.60
18408;DHT22;9330;52.210;21.174;2023-04-26T12:10:23;10.70;68.20
18408;DHT22;9330;52.210;21.174;2023-04-26T12:12:52;11.00;69.70
18408;DHT22;9330;52.210;21.174;2023-04-26T12:15:22;10.80;67.00
18408;DHT22;9330;52.210;21.174;2023-04-26T12:17:54;10.50;67.40
18408;DHT22;9330;52.210;21.174;2023-04-26T12:20:34;10.10;69.00
18408;DHT22;9330;52.210;21.174;2023-04-26T12:23:03;10.00;70.60
18408;DHT22;9330;52.210;21.174;2023-04-26T12:25:31;9.80;72.20
18408;DHT22;9330;52.210;21.174;2023-04-26T12:28:03;9.70;69.70
18408;DHT22;9330;52.210;21.174;2023-04-26T12:30:30;9.30;67.80
18408;DHT22;9330;52.210;21.174;2023-04-26T12:32:57;9.20;69.70
18408;DHT22;9330;52.210;21.174;2023-04-26T12:35:24;9.20;70.90
18408;DHT22;9330;52.210;21.174;2023-04-26T12:37:52;9.30;70.00
18408;DHT22;9330;52.210;21.174;2023-04-26T12:40:21;9.10;72.60
18408;DHT22;9330;52.210;21.174;2023-04-26T12:42:49;9.20;76.10
18408;DHT22;9330;52.210;21.174;2023-04-26T12:45:16;9.20;80.80
18408;DHT22;9330;52.210;21.174;2023-04-26T12:47:44;9.20;74.10
18408;DHT22;9330;52.210;21.174;2023-04-26T12:50:11;9.30;73.70
18408;DHT22;9330;52.210;21.174;2023-04-26T12:52:38;9.20;78.90
18408;DHT22;9330;52.210;21.174;2023-04-26T12:55:08;9.20;75.40
18408;DHT22;9330;52.210;21.174;2023-04-26T12:57:35;9.10;73.50
18408;DHT22;9330;52.210;21.174;2023-04-26T13:00:03;9.00;71.70
18408;DHT22;9330;52.210;21.174;2023-04-26T13:02:31;9.00;72.60
18408;DHT22;9330;52.210;21.174;2023-04-26T13:04:58;8.90;73.10
18408;DHT22;9330;52.210;21.174;2023-04-26T13:07:28;8.80;74.20
18408;DHT22;9330;52.210;21.174;2023-04-26T13:09:55;8.90;76.80
18408;DHT22;9330;52.210;21.174;2023-04-26T13:12:24;9.10;76.00
18408;DHT22;9330;52.210;21.174;2023-04-26T13:14:51;9.00;68.60
18408;DHT22;9330;52.210;21.174;2023-04-26T13:17:18;9.10;74.70
18408;DHT22;9330;52.210;21.174;2023-04-26T13:19:45;9.00;69.30
18408;DHT22;9330;52.210;21.174;2023-04-26T13:22:12;9.00;69.60
18408;DHT22;9330;52.210;21.174;2023-04-26T13:24:38;9.20;68.90
18408;DHT22;9330;52.210;21.174;2023-04-26T13:27:06;9.10;70.50
18408;DHT22;9330;52.210;21.174;2023-04-26T13:29:34;9.00;71.10
18408;DHT22;9330;52.210;21.174;2023-04-26T13:32:01;9.00;70.40
18408;DHT22;9330;52.210;21.174;2023-04-26T13:34:28;8.90;70.50
18408;DHT22;9330;52.210;21.174;2023-04-26T13:36:56;8.80;73.00
18408;DHT22;9330;52.210;21.174;2023-04-26T13:39:23;8.80;72.40
18408;DHT22;9330;52.210;21.174;2023-04-26T13:41:52;9.00;79.10
18408;DHT22;9330;52.210;21.174;2023-04-26T13:44:19;8.90;73.70
18408;DHT22;9330;52.210;21.174;2023-04-26T13:46:47;8.90;71.50
18408;DHT22;9330;52.210;21.174;2023-04-26T13:49:14;9.00;71.00
18408;DHT22;9330;52.210;21.174;2023-04-26T13:51:41;9.00;71.40
18408;DHT22;9330;52.210;21.174;2023-04-26T13:54:08;9.10;68.50
18408;DHT22;9330;52.210;21.174;2023-04-26T13:56:36;9.10;69.10
18408;DHT22;9330;52.210;21.174;2023-04-26T13:59:03;9.20;67.90
18408;DHT22;9330;52.210;21.174;2023-04-26T14:01:33;9.20;70.50
18408;DHT22;9330;52.210;21.174;2023-04-26T14:04:01;8.90;68.20
18408;DHT22;9330;52.210;21.174;2023-04-26T14:06:29;8.90;68.20
18408;DHT22;9330;52.210;21.174;2023-04-26T14:08:57;9.00;69.90
18408;DHT22;9330;52.210;21.174;2023-04-26T14:11:24;8.80;68.50
18408;DHT22;9330;52.210;21.174;2023-04-26T14:13:51;8.90;69.50
18408;DHT22;9330;52.210;21.174;2023-04-26T14:16:20;8.70;68.50
18408;DHT22;9330;52.210;21.174;2023-04-26T14:18:47;8.80;67.20
18408;DHT22;9330;52.210;21.174;2023-04-26T14:21:16;8.80;66.00
18408;DHT22;9330;52.210;21.174;2023-04-26T14:23:43;8.90;64.50
18408;DHT22;9330;52.210;21.174;2023-04-26T14:26:09;9.00;65.80
18408;DHT22;9330;52.210;21.174;2023-04-26T14:28:37;8.80;67.70
18408;DHT22;9330;52.210;21.174;2023-04-26T14:31:03;8.80;63.30
18408;DHT22;9330;52.210;21.174;2023-04-26T14:33:30;9.30;65.70
18408;DHT22;9330;52.210;21.174;2023-04-26T14:35:57;8.90;67.40
18408;DHT22;9330;52.210;21.174;2023-04-26T14:38:26;8.90;66.40
18408;DHT22;9330;52.210;21.174;2023-04-26T14:40:52;8.90;67.20
18408;DHT22;9330;52.210;21.174;2023-04-26T14:43:19;8.80;68.20
18408;DHT22;9330;52.210;21.174;2023-04-26T14:45:46;9.00;72.10
18408;DHT22;9330;52.210;21.174;2023-04-26T14:48:13;8.80;70.60
18408;DHT22;9330;52.210;21.174;2023-04-26T14:50:40;9.10;70.90
18408;DHT22;9330;52.210;21.174;2023-04-26T14:53:07;8.80;71.80
18408;DHT22;9330;52.210;21.174;2023-04-26T14:55:36;8.80;72.10
18408;DHT22;9330;52.210;21.174;2023-04-26T14:58:03;8.80;73.50
18408;DHT22;9330;52.210;21.174;2023-04-26T15:00:30;9.00;75.50
18408;DHT22;9330;52.210;21.174;2023-04-26T15:02:57;8.70;75.50
18408;DHT22;9330;52.210;21.174;2023-04-26T15:05:24;8.90;74.60
18408;DHT22;9330;52.210;21.174;2023-04-26T15:07:51;8.80;76.90
18408;DHT22;9330;52.210;21.174;2023-04-26T15:10:18;8.80;72.60
18408;DHT22;9330;52.210;21.174;2023-04-26T15:12:46;8.80;70.00
18408;DHT22;9330;52.210;21.174;2023-04-26T15:15:13;8.70;68.30
18408;DHT22;9330;52.210;21.174;2023-04-26T15:17:40;9.10;71.20
18408;DHT22;9330;52.210;21.174;2023-04-26T15:20:08;8.60;72.30
18408;DHT22;9330;52.210;21.174;2023-04-26T15:22:35;8.60;72.30
18408;DHT22;9330;52.210;21.174;2023-04-26T15:25:03;8.60;72.60
18408;DHT22;9330;52.210;21.174;2023-04-26T15:27:32;8.50;76.10
18408;DHT22;9330;52.210;21.174;2023-04-26T15:30:01;8.50;75.90
18408;DHT22;9330;52.210;21.174;2023-04-26T15:32:28;8.50;76.40
18408;DHT22;9330;52.210;21.174;2023-04-26T15:34:56;8.70;80.70
18408;DHT22;9330;52.210;21.174;2023-04-26T15:37:23;8.60;78.50
18408;DHT22;9330;52.210;21.174;2023-04-26T15:39:50;8.60;80.60
18408;DHT22;9330;52.210;21.174;2023-04-26T15:42:17;8.80;81.10
18408;DHT22;9330;52.210;21.174;2023-04-26T15:44:44;8.60;83.80
18408;DHT22;9330;52.210;21.174;2023-04-26T15:47:12;8.80;79.80
18408;DHT22;9330;52.210;21.174;2023-04-26T15:49:39;8.60;81.90
18408;DHT22;9330;52.210;21.174;2023-04-26T15:52:06;8.60;83.50
18408;DHT22;9330;52.210;21.174;2023-04-26T15:54:32;8.60;82.10